Time;durP1;ratioP1;P1;durP2;ratioP2;P2;SDS_P1;SDS_P2;PMS_P1;PMS_P2;Temp;Humidity;BMP_temperature;BMP_pressure;BME280_temperature;BME280_humidity;BME280_pressure;Samples;Min_cycle;Max_cycle;Signal;HPM_P1;HPM_P2
2022/07/09 00:00:59;;;;;;;3.20;0.85;;;17.30;99.90;;;;;;5045209;28;20240;-44
2022/07/09 00:03:25;;;;;;;3.15;0.70;;;17.30;99.90;;;;;;5031448;28;20250;-44
2022/07/09 00:05:51;;;;;;;3.67;0.80;;;17.30;99.90;;;;;;5029884;28;20098;-45
2022/07/09 00:08:16;;;;;;;4.35;0.80;;;17.30;99.90;;;;;;5032102;28;20047;-44
2022/07/09 00:10:42;;;;;;;2.28;0.57;;;17.20;99.90;;;;;;5029978;28;20305;-44
2022/07/09 00:13:08;;;;;;;3.70;0.50;;;17.20;99.90;;;;;;5029759;28;20037;-44
2022/07/09 00:15:33;;;;;;;3.45;0.70;;;17.20;99.90;;;;;;5031196;28;20487;-45
2022/07/09 00:17:59;;;;;;;3.90;0.68;;;17.20;99.90;;;;;;5029425;28;20259;-46
2022/07/09 00:20:25;;;;;;;4.47;0.95;;;17.20;99.90;;;;;;5031242;28;20049;-44
2022/07/09 00:22:50;;;;;;;3.58;0.80;;;17.20;99.90;;;;;;5031933;28;20037;-43
2022/07/09 00:25:16;;;;;;;3.60;0.70;;;17.20;99.90;;;;;;5029618;28;20758;-45
2022/07/09 00:27:42;;;;;;;4.65;0.90;;;17.20;99.90;;;;;;5031800;28;20098;-45
2022/07/09 00:30:08;;;;;;;3.83;0.93;;;17.20;99.90;;;;;;5030440;28;20597;-44
2022/07/09 00:32:34;;;;;;;3.55;0.70;;;17.20;99.90;;;;;;5029419;28;20347;-45
2022/07/09 00:34:59;;;;;;;3.65;0.80;;;17.20;99.90;;;;;;5029588;28;20160;-43
2022/07/09 00:37:25;;;;;;;4.45;0.70;;;17.20;99.90;;;;;;5030688;28;20095;-44
2022/07/09 00:39:51;;;;;;;3.60;0.77;;;17.20;99.90;;;;;;5031192;28;20084;-44
2022/07/09 00:42:17;;;;;;;4.32;0.90;;;17.20;99.90;;;;;;5030843;28;20041;-47
2022/07/09 00:44:43;;;;;;;3.80;0.60;;;17.20;99.90;;;;;;5030461;28;20068;-44
2022/07/09 00:47:08;;;;;;;4.13;0.88;;;17.20;99.90;;;;;;5028159;28;20048;-43
2022/07/09 00:49:40;;;;;;;4.72;1.05;;;17.20;99.90;;;;;;5013132;28;20052;-45
2022/07/09 00:52:07;;;;;;;5.45;1.10;;;17.20;99.90;;;;;;5031011;28;20055;-44
2022/07/09 00:54:35;;;;;;;4.50;1.10;;;17.20;99.90;;;;;;5030861;28;20309;-43
2022/07/09 00:57:02;;;;;;;4.80;0.70;;;17.20;99.90;;;;;;5027521;28;20051;-43
2022/07/09 00:59:28;;;;;;;4.38;0.98;;;17.20;99.90;;;;;;5030305;28;20361;-43
2022/07/09 01:01:54;;;;;;;7.18;1.10;;;17.20;99.90;;;;;;5030018;28;20048;-44
2022/07/09 01:04:20;;;;;;;3.75;0.80;;;17.20;99.90;;;;;;5030660;28;20128;-45
2022/07/09 01:06:46;;;;;;;2.50;0.60;;;17.20;99.90;;;;;;5028816;28;20037;-46
2022/07/09 01:09:13;;;;;;;4.10;0.90;;;17.20;99.90;;;;;;5030522;28;20415;-44
2022/07/09 01:11:39;;;;;;;2.42;0.60;;;17.30;99.90;;;;;;5029681;28;20049;-44
2022/07/09 01:14:05;;;;;;;3.42;1.08;;;17.30;99.90;;;;;;5029832;28;20036;-44
2022/07/09 01:16:35;;;;;;;3.05;0.90;;;17.30;99.90;;;;;;5029751;28;20106;-44
2022/07/09 01:19:01;;;;;;;4.03;1.25;;;17.30;99.90;;;;;;5027651;28;20044;-44
2022/07/09 01:21:27;;;;;;;2.65;0.70;;;17.30;99.90;;;;;;5028434;28;20298;-45
2022/07/09 01:23:53;;;;;;;4.70;1.25;;;17.30;99.90;;;;;;5011995;28;20045;-44
2022/07/09 01:26:21;;;;;;;3.65;1.10;;;17.30;99.90;;;;;;5042260;28;20144;-44
2022/07/09 01:28:47;;;;;;;4.53;1.33;;;17.30;99.90;;;;;;5030155;28;20083;-44
2022/07/09 01:31:14;;;;;;;4.40;1.02;;;17.30;99.90;;;;;;5028779;28;20039;-44
2022/07/09 01:33:40;;;;;;;6.03;1.10;;;17.30;99.90;;;;;;5042978;28;20155;-44
2022/07/09 01:36:09;;;;;;;3.10;0.82;;;17.30;99.90;;;;;;5030029;28;20095;-44
2022/07/09 01:38:35;;;;;;;4.10;1.30;;;17.40;99.90;;;;;;5044296;28;21293;-43
2022/07/09 01:41:01;;;;;;;4.80;1.10;;;17.40;99.90;;;;;;5029320;28;20507;-43
2022/07/09 01:43:27;;;;;;;5.55;1.30;;;17.30;99.90;;;;;;5029861;28;20052;-44
2022/07/09 01:45:52;;;;;;;4.85;1.65;;;17.40;99.90;;;;;;5027360;28;20041;-44
2022/07/09 01:48:18;;;;;;;7.47;1.10;;;17.40;99.90;;;;;;5029964;28;20232;-43
2022/07/09 01:50:44;;;;;;;4.75;1.20;;;17.40;99.90;;;;;;5030069;28;20087;-43
2022/07/09 01:53:10;;;;;;;5.35;1.40;;;17.40;99.90;;;;;;5029299;28;20380;-43
2022/07/09 01:55:36;;;;;;;5.03;0.73;;;17.40;99.90;;;;;;5029503;28;20076;-44
2022/07/09 01:58:02;;;;;;;6.47;1.02;;;17.40;99.90;;;;;;5029368;28;20173;-44
2022/07/09 02:00:29;;;;;;;4.20;0.90;;;17.40;99.90;;;;;;5029772;28;20428;-43
2022/07/09 02:02:55;;;;;;;6.97;1.50;;;17.40;99.90;;;;;;5027618;28;20172;-44
2022/07/09 02:05:21;;;;;;;3.67;1.35;;;17.40;99.90;;;;;;5030506;28;20075;-44
2022/07/09 02:07:47;;;;;;;4.60;0.70;;;17.40;99.90;;;;;;5028185;28;20322;-44
2022/07/09 02:10:13;;;;;;;6.03;1.30;;;17.40;99.90;;;;;;5027479;28;20280;-45
2022/07/09 02:12:40;;;;;;;4.53;1.05;;;17.40;99.90;;;;;;5029282;28;20498;-43
2022/07/09 02:15:07;;;;;;;5.93;1.42;;;17.40;99.90;;;;;;5028916;28;20467;-44
2022/07/09 02:17:34;;;;;;;4.78;1.13;;;17.40;99.90;;;;;;5028028;28;20275;-46
2022/07/09 02:20:00;;;;;;;4.70;1.00;;;17.40;99.90;;;;;;5033904;28;20120;-43
2022/07/09 02:22:26;;;;;;;6.60;1.27;;;17.40;99.90;;;;;;5030975;28;20055;-43
2022/07/09 02:24:51;;;;;;;5.47;1.25;;;17.40;99.90;;;;;;5031600;28;20037;-43
2022/07/09 02:27:17;;;;;;;4.13;1.00;;;17.40;99.90;;;;;;5030940;28;20821;-44
2022/07/09 02:29:43;;;;;;;6.65;1.60;;;17.40;99.90;;;;;;5031909;28;20561;-43
2022/07/09 02:32:10;;;;;;;5.78;1.20;;;17.40;99.90;;;;;;5032935;28;20543;-44
2022/07/09 02:34:37;;;;;;;5.07;1.60;;;17.40;99.90;;;;;;5031750;28;20083;-44
2022/07/09 02:37:04;;;;;;;7.03;1.70;;;17.40;99.90;;;;;;5032365;28;20115;-43
2022/07/09 02:39:30;;;;;;;5.13;1.05;;;17.40;99.90;;;;;;5030852;28;20083;-44
2022/07/09 02:41:55;;;;;;;6.50;1.40;;;17.40;99.90;;;;;;5047224;28;20332;-43
2022/07/09 02:44:21;;;;;;;6.78;1.75;;;17.40;99.90;;;;;;5032703;28;20041;-43
2022/07/09 02:46:46;;;;;;;5.65;1.27;;;17.40;99.90;;;;;;5031409;28;20847;-44
2022/07/09 02:49:13;;;;;;;6.88;1.17;;;17.40;99.90;;;;;;5033304;28;20326;-44
2022/07/09 02:51:38;;;;;;;6.90;1.48;;;17.40;99.90;;;;;;5032487;28;20044;-43
2022/07/09 02:54:04;;;;;;;4.95;1.70;;;17.40;99.90;;;;;;5028958;28;20554;-44
2022/07/09 02:56:30;;;;;;;7.00;1.70;;;17.40;99.90;;;;;;5032665;28;20051;-44
2022/07/09 02:58:56;;;;;;;6.57;1.10;;;17.40;99.90;;;;;;5031923;28;20033;-43
2022/07/09 03:01:22;;;;;;;7.20;1.90;;;17.40;99.90;;;;;;5032419;28;20134;-44
2022/07/09 03:03:47;;;;;;;4.70;1.10;;;17.40;99.90;;;;;;5032907;28;20037;-44
2022/07/09 03:06:13;;;;;;;7.68;1.52;;;17.40;99.90;;;;;;5030869;28;20041;-44
2022/07/09 03:08:39;;;;;;;4.05;1.27;;;17.40;99.90;;;;;;5030411;28;20095;-44
2022/07/09 03:11:09;;;;;;;4.53;1.00;;;17.30;99.90;;;;;;5014189;28;20064;-44
2022/07/09 03:13:35;;;;;;;5.70;1.63;;;17.30;99.90;;;;;;5032482;28;20534;-45
2022/07/09 03:16:01;;;;;;;4.07;1.10;;;17.30;99.90;;;;;;5032216;28;20419;-44
2022/07/09 03:18:27;;;;;;;4.72;1.35;;;17.30;99.90;;;;;;5030453;28;20159;-47
2022/07/09 03:20:53;;;;;;;3.92;1.15;;;17.30;99.90;;;;;;5032298;28;20047;-44
2022/07/09 03:23:18;;;;;;;4.75;1.38;;;17.30;99.90;;;;;;5030641;28;20037;-44
2022/07/09 03:25:44;;;;;;;5.00;1.00;;;17.20;99.90;;;;;;5031731;28;20029;-46
2022/07/09 03:28:10;;;;;;;6.50;1.90;;;17.20;99.90;;;;;;5031690;28;20033;-43
2022/07/09 03:30:36;;;;;;;5.72;1.15;;;17.20;99.90;;;;;;5030817;28;20476;-43
2022/07/09 03:33:02;;;;;;;5.38;1.80;;;17.20;99.90;;;;;;5031780;28;20068;-44
2022/07/09 03:35:28;;;;;;;5.43;1.25;;;17.20;99.90;;;;;;5032247;28;20182;-44
2022/07/09 03:37:54;;;;;;;7.32;2.03;;;17.20;99.90;;;;;;5029910;28;20049;-44
2022/07/09 03:40:20;;;;;;;4.75;1.50;;;17.10;99.90;;;;;;5029660;28;20201;-44
2022/07/09 03:42:46;;;;;;;5.00;1.38;;;17.10;99.90;;;;;;5044971;28;20025;-44
2022/07/09 03:45:11;;;;;;;4.75;1.30;;;17.10;99.90;;;;;;5031304;28;20048;-44
2022/07/09 03:47:37;;;;;;;5.03;1.08;;;17.10;99.90;;;;;;5032083;28;20065;-48
2022/07/09 03:50:04;;;;;;;5.05;2.00;;;17.10;99.90;;;;;;5032060;28;20113;-44
2022/07/09 03:52:30;;;;;;;6.57;1.40;;;17.10;99.90;;;;;;5031091;28;20045;-46
2022/07/09 03:54:55;;;;;;;5.25;1.60;;;17.10;99.90;;;;;;5029421;28;20241;-44
2022/07/09 03:57:21;;;;;;;4.47;1.17;;;17.10;99.90;;;;;;5029744;28;20037;-44
2022/07/09 03:59:47;;;;;;;5.82;1.10;;;17.10;99.90;;;;;;5031496;28;20040;-44
2022/07/09 04:02:12;;;;;;;4.90;1.33;;;17.10;99.90;;;;;;5031419;28;20045;-44
2022/07/09 04:04:38;;;;;;;4.10;1.10;;;17.20;99.90;;;;;;5013543;28;20049;-44
2022/07/09 04:07:04;;;;;;;4.10;1.00;;;17.10;99.90;;;;;;5030821;28;20033;-44
2022/07/09 04:09:30;;;;;;;3.45;1.27;;;17.20;99.90;;;;;;5029529;28;20538;-43
2022/07/09 04:11:56;;;;;;;3.63;1.00;;;17.20;99.90;;;;;;5029893;28;20392;-43
2022/07/09 04:14:21;;;;;;;4.43;1.05;;;17.20;99.90;;;;;;5030719;28;20606;-44
2022/07/09 04:16:47;;;;;;;4.43;1.35;;;17.20;99.90;;;;;;5029420;28;20132;-44
2022/07/09 04:19:13;;;;;;;5.93;1.30;;;17.20;99.90;;;;;;5030278;28;20567;-44
2022/07/09 04:21:38;;;;;;;4.90;0.82;;;17.20;99.90;;;;;;5028957;28;20122;-43
2022/07/09 04:24:04;;;;;;;3.63;0.88;;;17.20;99.90;;;;;;5030826;28;20049;-44
2022/07/09 04:26:30;;;;;;;6.60;1.40;;;17.20;99.90;;;;;;5030664;28;20036;-44
2022/07/09 04:28:56;;;;;;;4.57;0.95;;;17.20;99.90;;;;;;5029654;28;20045;-43
2022/07/09 04:31:21;;;;;;;3.50;0.93;;;17.20;99.90;;;;;;5030700;28;20045;-44
2022/07/09 04:33:47;;;;;;;4.32;1.00;;;17.30;99.90;;;;;;5031498;28;20116;-44
2022/07/09 04:36:13;;;;;;;4.35;1.00;;;17.30;99.90;;;;;;5030343;28;20723;-45
2022/07/09 04:38:39;;;;;;;5.30;1.10;;;17.30;99.90;;;;;;5028780;28;20052;-44
2022/07/09 04:41:05;;;;;;;3.20;1.05;;;17.30;99.90;;;;;;5027772;28;20032;-44
2022/07/09 04:43:31;;;;;;;2.85;0.90;;;17.30;99.90;;;;;;5014537;28;20033;-47
2022/07/09 04:45:57;;;;;;;2.88;0.80;;;17.30;99.90;;;;;;5031285;28;20127;-46
2022/07/09 04:48:23;;;;;;;3.40;1.00;;;17.30;99.90;;;;;;5030849;28;20049;-44
2022/07/09 04:50:49;;;;;;;4.35;0.70;;;17.30;99.90;;;;;;5030856;28;20366;-44
2022/07/09 04:53:14;;;;;;;4.28;0.80;;;17.40;99.90;;;;;;5028491;28;20045;-44
2022/07/09 04:55:40;;;;;;;2.97;0.90;;;17.40;99.90;;;;;;5030171;28;20040;-43
2022/07/09 04:58:06;;;;;;;3.55;0.93;;;17.40;99.90;;;;;;5030036;28;20327;-43
2022/07/09 05:00:34;;;;;;;3.47;0.90;;;17.40;99.90;;;;;;5029770;28;20063;-44
2022/07/09 05:03:01;;;;;;;6.60;0.80;;;17.40;99.90;;;;;;5030536;28;20040;-44
2022/07/09 05:05:27;;;;;;;3.63;0.90;;;17.40;99.90;;;;;;5030661;28;20483;-44
2022/07/09 05:07:52;;;;;;;4.60;0.77;;;17.50;99.90;;;;;;5029988;28;20102;-47
2022/07/09 05:10:19;;;;;;;4.68;1.13;;;17.50;99.90;;;;;;5025151;28;20071;-45
2022/07/09 05:12:45;;;;;;;2.70;1.02;;;17.50;99.90;;;;;;5029949;28;20154;-43
2022/07/09 05:15:11;;;;;;;2.90;0.80;;;17.50;99.90;;;;;;5011734;28;20475;-44
2022/07/09 05:17:37;;;;;;;3.25;0.85;;;17.50;99.90;;;;;;5030103;28;20123;-43
2022/07/09 05:20:05;;;;;;;3.90;0.80;;;17.50;99.90;;;;;;5029330;28;20168;-44
2022/07/09 05:22:32;;;;;;;4.70;1.38;;;17.60;99.90;;;;;;5029592;28;20067;-45
2022/07/09 05:24:58;;;;;;;3.85;0.90;;;17.60;99.90;;;;;;5029338;28;20033;-44
2022/07/09 05:27:24;;;;;;;2.20;1.00;;;17.60;99.90;;;;;;5029216;28;20266;-44
2022/07/09 05:29:50;;;;;;;3.17;0.80;;;17.60;99.90;;;;;;5029753;28;20332;-44
2022/07/09 05:32:16;;;;;;;3.35;1.20;;;17.70;99.90;;;;;;5029647;28;20045;-44
2022/07/09 05:34:41;;;;;;;3.38;0.88;;;17.70;99.90;;;;;;5028587;28;20076;-46
2022/07/09 05:37:07;;;;;;;5.60;1.10;;;17.70;99.90;;;;;;5028307;28;20049;-44
2022/07/09 05:39:33;;;;;;;4.43;1.10;;;17.80;99.90;;;;;;5028650;28;20127;-43
2022/07/09 05:41:59;;;;;;;3.65;1.00;;;17.80;99.90;;;;;;5027523;28;20045;-46
2022/07/09 05:44:24;;;;;;;3.10;1.00;;;17.80;99.90;;;;;;5043753;28;20045;-44
2022/07/09 05:46:50;;;;;;;2.88;1.05;;;17.80;99.90;;;;;;5028049;28;20195;-47
2022/07/09 05:49:15;;;;;;;2.92;1.13;;;17.90;99.90;;;;;;5028187;28;20478;-44
2022/07/09 05:51:41;;;;;;;4.78;1.30;;;17.90;99.90;;;;;;5027840;28;20036;-44
2022/07/09 05:54:07;;;;;;;3.15;1.13;;;17.90;99.90;;;;;;5030746;28;20119;-44
2022/07/09 05:56:34;;;;;;;4.05;1.30;;;17.90;99.90;;;;;;5030512;28;20256;-43
2022/07/09 05:59:00;;;;;;;3.78;1.50;;;18.00;99.90;;;;;;5032612;28;20310;-43
2022/07/09 06:01:25;;;;;;;4.13;0.88;;;18.00;99.90;;;;;;5030360;28;20565;-43
2022/07/09 06:03:51;;;;;;;5.28;1.50;;;18.00;99.90;;;;;;5014912;28;20047;-44
2022/07/09 06:06:17;;;;;;;3.97;1.05;;;18.00;99.90;;;;;;5030246;28;20037;-43
2022/07/09 06:08:42;;;;;;;1.98;1.00;;;18.00;99.90;;;;;;5012464;28;20103;-44
2022/07/09 06:11:08;;;;;;;4.47;1.08;;;18.00;99.90;;;;;;5030345;28;20040;-44
2022/07/09 06:13:34;;;;;;;4.65;1.30;;;18.10;99.90;;;;;;5031740;28;20083;-44
2022/07/09 06:15:59;;;;;;;3.72;1.10;;;18.10;99.90;;;;;;5031636;28;20053;-43
2022/07/09 06:18:25;;;;;;;4.35;1.35;;;18.20;99.90;;;;;;5032584;28;20055;-46
2022/07/09 06:20:50;;;;;;;3.72;1.00;;;18.20;99.90;;;;;;5031674;28;20039;-44
2022/07/09 06:23:16;;;;;;;6.00;1.13;;;18.30;99.90;;;;;;5030325;28;20041;-44
2022/07/09 06:25:42;;;;;;;3.17;0.95;;;18.30;99.90;;;;;;5032062;28;20044;-43
2022/07/09 06:28:07;;;;;;;5.25;1.30;;;18.30;99.90;;;;;;5032099;28;20475;-44
2022/07/09 06:30:36;;;;;;;4.30;1.10;;;18.30;99.90;;;;;;5030944;28;20057;-44
2022/07/09 06:33:02;;;;;;;4.70;1.05;;;18.30;99.90;;;;;;5030320;28;20040;-43
2022/07/09 06:35:27;;;;;;;4.50;0.80;;;18.40;99.90;;;;;;5030488;28;20044;-43
2022/07/09 06:37:53;;;;;;;2.85;1.10;;;18.40;99.90;;;;;;5032699;28;20515;-43
2022/07/09 06:40:19;;;;;;;3.85;1.00;;;18.40;99.90;;;;;;5030486;28;20049;-43
2022/07/09 06:42:44;;;;;;;3.15;0.80;;;18.50;99.90;;;;;;5031993;28;20037;-43
2022/07/09 06:45:10;;;;;;;5.38;0.82;;;18.50;99.90;;;;;;5013494;28;20037;-43
2022/07/09 06:47:36;;;;;;;5.80;0.90;;;18.50;99.90;;;;;;5031945;28;20179;-44
2022/07/09 06:50:02;;;;;;;7.07;0.93;;;18.60;99.90;;;;;;5030278;28;20037;-43
2022/07/09 06:52:28;;;;;;;4.95;0.90;;;18.60;99.90;;;;;;5030294;28;20336;-44
2022/07/09 06:54:54;;;;;;;6.40;0.90;;;18.70;99.90;;;;;;5031473;28;20484;-45
2022/07/09 06:57:19;;;;;;;4.22;0.60;;;18.70;99.90;;;;;;5028172;28;20247;-44
2022/07/09 06:59:45;;;;;;;3.88;0.63;;;18.70;99.90;;;;;;5031934;28;20072;-44
2022/07/09 07:02:12;;;;;;;6.63;0.77;;;18.80;99.90;;;;;;5031313;28;20408;-44
2022/07/09 07:04:38;;;;;;;3.80;0.70;;;18.80;99.90;;;;;;5031462;28;20108;-43
2022/07/09 07:07:04;;;;;;;3.50;0.70;;;18.90;99.90;;;;;;5033588;28;20539;-44
2022/07/09 07:09:30;;;;;;;3.03;0.65;;;18.90;99.90;;;;;;5033068;28;20045;-44
2022/07/09 07:11:56;;;;;;;3.40;0.50;;;19.00;99.90;;;;;;5031828;28;20041;-43
2022/07/09 07:14:21;;;;;;;3.17;0.63;;;19.00;99.90;;;;;;5033405;28;20418;-44
2022/07/09 07:16:47;;;;;;;3.15;0.60;;;19.00;99.90;;;;;;5029630;28;20102;-44
2022/07/09 07:19:13;;;;;;;4.05;0.60;;;19.10;99.90;;;;;;5030564;28;20140;-43
2022/07/09 07:21:38;;;;;;;3.05;0.50;;;19.20;99.90;;;;;;5030268;28;20037;-43
2022/07/09 07:24:05;;;;;;;3.55;0.60;;;19.20;99.90;;;;;;5031675;28;20045;-43
2022/07/09 07:26:32;;;;;;;2.85;0.50;;;19.20;99.90;;;;;;5031863;28;20033;-44
2022/07/09 07:28:58;;;;;;;6.55;0.55;;;19.30;99.90;;;;;;5031150;28;20196;-44
2022/07/09 07:31:24;;;;;;;4.82;0.52;;;19.30;99.90;;;;;;5030466;28;20199;-45
2022/07/09 07:33:50;;;;;;;4.43;0.47;;;19.40;99.90;;;;;;5031779;28;20070;-45
2022/07/09 07:36:16;;;;;;;6.75;0.70;;;19.40;99.90;;;;;;5031295;28;20045;-45
2022/07/09 07:38:42;;;;;;;3.50;0.50;;;19.50;99.90;;;;;;5032185;28;20285;-45
2022/07/09 07:41:08;;;;;;;3.90;0.70;;;19.50;99.90;;;;;;5030617;28;20433;-44
2022/07/09 07:43:33;;;;;;;4.70;0.50;;;19.60;99.90;;;;;;5034063;28;20124;-44
2022/07/09 07:45:59;;;;;;;3.40;0.45;;;19.70;99.90;;;;;;5033940;28;20045;-44
2022/07/09 07:48:27;;;;;;;4.10;0.40;;;19.70;99.90;;;;;;5035395;28;20133;-43
2022/07/09 07:50:53;;;;;;;4.72;0.40;;;19.80;99.90;;;;;;5035768;28;20075;-43
2022/07/09 07:53:19;;;;;;;4.22;0.45;;;19.80;99.90;;;;;;5034027;28;20080;-43
2022/07/09 07:55:45;;;;;;;4.03;0.50;;;19.90;99.90;;;;;;5034144;28;20333;-44
2022/07/09 07:58:10;;;;;;;4.50;0.40;;;19.90;99.90;;;;;;5035504;28;20089;-43
2022/07/09 08:00:37;;;;;;;2.97;0.40;;;20.00;99.90;;;;;;5035883;28;20040;-45
2022/07/09 08:03:03;;;;;;;3.75;0.50;;;20.00;99.90;;;;;;5035834;28;20041;-44
2022/07/09 08:05:29;;;;;;;3.53;0.40;;;20.00;99.90;;;;;;5051347;28;20045;-44
2022/07/09 08:07:55;;;;;;;2.60;0.45;;;20.10;99.90;;;;;;5036159;28;20033;-45
2022/07/09 08:10:21;;;;;;;3.03;0.40;;;20.10;99.90;;;;;;5043942;28;20044;-43
2022/07/09 08:12:47;;;;;;;4.68;0.43;;;20.20;99.90;;;;;;5043049;28;20475;-43
2022/07/09 08:15:13;;;;;;;5.00;0.57;;;20.20;99.90;;;;;;5042661;28;20132;-45
2022/07/09 08:17:38;;;;;;;6.82;0.85;;;20.30;99.90;;;;;;5043779;28;20072;-43
2022/07/09 08:20:05;;;;;;;5.63;0.77;;;20.30;99.90;;;;;;5041789;28;20076;-42
2022/07/09 08:22:31;;;;;;;6.93;0.82;;;20.30;99.90;;;;;;5058316;28;20116;-44
2022/07/09 08:24:56;;;;;;;6.13;0.50;;;20.40;99.90;;;;;;5042611;28;20086;-43
2022/07/09 08:27:23;;;;;;;5.90;0.63;;;20.50;99.90;;;;;;5041800;28;20122;-42
2022/07/09 08:29:49;;;;;;;3.60;0.55;;;20.50;99.90;;;;;;5042894;28;20040;-44
2022/07/09 08:32:15;;;;;;;6.72;0.70;;;20.50;99.90;;;;;;5042406;28;20558;-42
2022/07/09 08:34:41;;;;;;;4.30;0.40;;;20.60;99.90;;;;;;5043712;28;20434;-43
2022/07/09 08:37:07;;;;;;;6.72;0.40;;;20.60;99.90;;;;;;5043274;28;20068;-43
2022/07/09 08:39:32;;;;;;;5.15;0.50;;;20.70;99.90;;;;;;5024886;28;20040;-45
2022/07/09 08:41:59;;;;;;;4.80;0.80;;;20.70;99.90;;;;;;5043091;28;20528;-43
2022/07/09 08:44:35;;;;;;;5.95;0.50;;;20.80;99.90;;;;;;5041053;28;20041;-43
2022/07/09 08:47:01;;;;;;;5.30;0.63;;;20.80;99.90;;;;;;5041048;28;20052;-42
2022/07/09 08:49:28;;;;;;;6.82;0.52;;;20.80;99.90;;;;;;5057189;28;20068;-43
2022/07/09 08:51:56;;;;;;;6.18;0.65;;;20.90;99.90;;;;;;5057326;28;20044;-43
2022/07/09 08:54:22;;;;;;;5.97;0.60;;;20.90;99.90;;;;;;5042057;28;20067;-43
2022/07/09 08:56:51;;;;;;;3.53;0.55;;;20.90;99.90;;;;;;5040163;28;20056;-44
2022/07/09 08:59:16;;;;;;;5.82;0.70;;;20.90;99.90;;;;;;5042956;28;20042;-43
2022/07/09 09:01:42;;;;;;;4.45;0.60;;;21.00;99.90;;;;;;5040696;28;20079;-45
2022/07/09 09:04:08;;;;;;;6.82;0.65;;;21.00;99.90;;;;;;5039946;28;20045;-43
2022/07/09 09:06:39;;;;;;;4.32;0.50;;;21.10;99.90;;;;;;5040046;28;20139;-43
2022/07/09 09:09:08;;;;;;;5.30;0.50;;;21.20;99.90;;;;;;5039865;28;20279;-43
2022/07/09 09:11:36;;;;;;;6.22;0.50;;;21.10;99.90;;;;;;5041026;28;20099;-45
2022/07/09 09:14:02;;;;;;;6.38;0.65;;;21.20;99.90;;;;;;5039522;28;20040;-44
2022/07/09 09:16:28;;;;;;;5.68;0.68;;;21.20;99.90;;;;;;5040708;28;20494;-46
2022/07/09 09:18:55;;;;;;;5.53;0.70;;;21.30;99.90;;;;;;5039010;28;20045;-44
2022/07/09 09:21:25;;;;;;;5.38;0.50;;;21.30;99.90;;;;;;5039855;28;20491;-48
2022/07/09 09:23:53;;;;;;;6.85;0.90;;;21.40;99.90;;;;;;5056045;28;20460;-43
2022/07/09 09:26:24;;;;;;;3.10;0.40;;;21.40;99.90;;;;;;5039394;28;20060;-44
2022/07/09 09:28:58;;;;;;;6.70;0.55;;;21.40;99.90;;;;;;5040650;28;20037;-44
2022/07/09 09:31:35;;;;;;;6.43;0.73;;;21.50;99.90;;;;;;5040063;28;20053;-44
2022/07/09 09:34:11;;;;;;;4.60;0.50;;;21.50;99.90;;;;;;5031837;28;20083;-45
2022/07/09 09:36:42;;;;;;;9.32;0.80;;;21.60;99.90;;;;;;5032464;28;20649;-43
2022/07/09 09:39:24;;;;;;;5.40;0.70;;;21.70;99.90;;;;;;5033422;28;20486;-44
2022/07/09 09:41:55;;;;;;;4.57;0.60;;;21.70;99.90;;;;;;5039763;28;20045;-45
2022/07/09 09:44:24;;;;;;;5.45;0.63;;;21.70;99.90;;;;;;5038504;28;20080;-44
2022/07/09 09:46:50;;;;;;;5.47;0.63;;;21.80;99.90;;;;;;5038890;28;20287;-43
2022/07/09 09:49:16;;;;;;;5.50;0.60;;;21.80;99.90;;;;;;5021832;28;20498;-43
2022/07/09 09:51:54;;;;;;;5.75;0.57;;;21.80;99.90;;;;;;5037766;28;20397;-45
2022/07/09 09:54:21;;;;;;;6.28;0.70;;;21.80;99.90;;;;;;5039876;28;20126;-44
2022/07/09 09:56:48;;;;;;;4.30;0.60;;;21.90;99.90;;;;;;5039359;28;20517;-43
2022/07/09 09:59:14;;;;;;;5.38;0.50;;;21.90;99.90;;;;;;5038347;28;20131;-43
2022/07/09 10:01:41;;;;;;;7.97;0.65;;;22.00;99.90;;;;;;5037353;28;20051;-44
2022/07/09 10:04:09;;;;;;;7.15;1.00;;;22.00;99.90;;;;;;5038065;28;20324;-45
2022/07/09 10:06:35;;;;;;;6.72;0.90;;;22.00;99.90;;;;;;5030609;28;20525;-43
2022/07/09 10:09:02;;;;;;;5.25;0.63;;;22.00;99.90;;;;;;5032609;28;20040;-44
2022/07/09 10:11:48;;;;;;;4.35;0.70;;;22.10;99.90;;;;;;5031966;28;20085;-44
2022/07/09 10:14:23;;;;;;;5.55;0.82;;;22.10;99.90;;;;;;5032022;28;20041;-44
2022/07/09 10:16:50;;;;;;;8.50;0.50;;;22.10;99.90;;;;;;5014699;28;20041;-44
2022/07/09 10:19:26;;;;;;;7.80;0.80;;;22.20;99.90;;;;;;5032656;28;20049;-45
2022/07/09 10:21:54;;;;;;;6.25;0.50;;;22.20;99.90;;;;;;5030210;28;20048;-45
2022/07/09 10:24:34;;;;;;;5.82;0.50;;;22.20;99.90;;;;;;5047290;28;20049;-43
2022/07/09 10:27:10;;;;;;;7.50;0.70;;;22.30;99.90;;;;;;5031743;28;20303;-43
2022/07/09 10:29:59;;;;;;;5.55;0.50;;;22.20;99.90;;;;;;5047266;28;20309;-44
2022/07/09 10:32:27;;;;;;;5.57;0.77;;;22.20;99.90;;;;;;5030739;28;20449;-43
2022/07/09 10:35:03;;;;;;;6.90;0.75;;;22.20;99.90;;;;;;5047525;28;20052;-44
2022/07/09 10:37:42;;;;;;;7.38;1.02;;;22.20;99.90;;;;;;5032166;28;20065;-46
2022/07/09 10:40:13;;;;;;;5.57;0.47;;;22.20;99.90;;;;;;5035679;28;20383;-45
2022/07/09 10:42:41;;;;;;;5.57;0.50;;;22.20;99.90;;;;;;5038786;28;20087;-43
2022/07/09 10:45:18;;;;;;;8.88;1.10;;;22.20;99.90;;;;;;5041530;28;20041;-43
2022/07/09 10:47:46;;;;;;;8.02;0.60;;;22.20;99.90;;;;;;5041037;28;20316;-44
2022/07/09 10:50:12;;;;;;;6.70;0.68;;;22.20;99.90;;;;;;5039657;28;20450;-43
2022/07/09 10:52:38;;;;;;;9.48;0.77;;;22.20;99.90;;;;;;5041811;28;20053;-45
2022/07/09 10:55:05;;;;;;;8.02;1.00;;;22.30;99.90;;;;;;5041495;28;20063;-43
2022/07/09 10:57:30;;;;;;;7.47;1.00;;;22.20;99.90;;;;;;5041567;28;20510;-43
2022/07/09 10:59:56;;;;;;;8.43;0.90;;;22.20;99.90;;;;;;5041196;28;20132;-43
2022/07/09 11:02:22;;;;;;;7.38;0.80;;;22.20;99.90;;;;;;5039324;28;20044;-43
2022/07/09 11:04:52;;;;;;;6.03;0.80;;;22.20;99.90;;;;;;5041321;28;20033;-43
2022/07/09 11:07:22;;;;;;;9.45;0.68;;;22.30;99.90;;;;;;5056606;28;20052;-43
2022/07/09 11:09:49;;;;;;;9.43;0.93;;;22.30;99.90;;;;;;5041067;28;20066;-43
2022/07/09 11:12:19;;;;;;;7.88;0.68;;;22.30;99.90;;;;;;5041169;28;20219;-46
2022/07/09 11:14:51;;;;;;;7.40;0.70;;;22.30;99.90;;;;;;5040661;28;20045;-46
2022/07/09 11:17:21;;;;;;;8.43;0.70;;;22.40;99.90;;;;;;5038805;28;20270;-43
2022/07/09 11:19:48;;;;;;;7.07;0.73;;;22.40;99.90;;;;;;5036425;28;20047;-44
2022/07/09 11:22:17;;;;;;;4.85;0.60;;;22.50;99.90;;;;;;5035626;28;20374;-43
2022/07/09 11:24:43;;;;;;;10.05;0.65;;;22.60;99.90;;;;;;5037050;28;20156;-43
2022/07/09 11:27:09;;;;;;;6.13;0.50;;;22.60;99.90;;;;;;5039100;28;20036;-43
2022/07/09 11:29:36;;;;;;;5.15;0.50;;;22.70;99.90;;;;;;5038223;28;20053;-43
2022/07/09 11:32:02;;;;;;;3.65;0.50;;;22.70;99.90;;;;;;5036668;28;20756;-43
2022/07/09 11:34:31;;;;;;;6.50;0.60;;;22.80;99.90;;;;;;5050264;28;20337;-43
2022/07/09 11:36:58;;;;;;;4.72;0.40;;;22.80;99.90;;;;;;5038828;28;20079;-43
2022/07/09 11:39:29;;;;;;;6.88;0.60;;;23.00;99.90;;;;;;5038611;28;20063;-44
2022/07/09 11:41:56;;;;;;;8.13;0.60;;;23.00;99.90;;;;;;5038202;28;20308;-43
2022/07/09 11:44:25;;;;;;;6.95;0.40;;;23.10;99.90;;;;;;5040004;28;20029;-43
2022/07/09 11:47:08;;;;;;;5.03;0.50;;;23.10;99.90;;;;;;5039071;28;20037;-43
2022/07/09 11:49:40;;;;;;;5.20;0.70;;;23.20;99.90;;;;;;5050528;28;20051;-46
2022/07/09 11:52:20;;;;;;;3.35;0.38;;;23.20;99.90;;;;;;5038535;28;20049;-42
2022/07/09 11:54:56;;;;;;;3.70;0.47;;;23.20;99.90;;;;;;5038619;28;20048;-44
2022/07/09 11:57:22;;;;;;;5.40;0.38;;;23.20;99.90;;;;;;5038218;28;20259;-43
2022/07/09 11:59:50;;;;;;;5.45;0.52;;;23.30;99.90;;;;;;5036252;28;20432;-44
2022/07/09 12:02:28;;;;;;;4.03;0.60;;;23.30;99.90;;;;;;5032237;28;20212;-44
2022/07/09 12:04:54;;;;;;;4.70;0.47;;;23.40;99.90;;;;;;5039254;28;20139;-43
2022/07/09 12:07:20;;;;;;;6.05;0.40;;;23.50;99.90;;;;;;5038731;28;20491;-43
2022/07/09 12:09:46;;;;;;;7.57;0.40;;;23.50;99.90;;;;;;5028686;28;20048;-44
2022/07/09 12:12:11;;;;;;;2.78;0.30;;;23.50;99.90;;;;;;5028857;28;20114;-44
2022/07/09 12:14:37;;;;;;;4.28;0.30;;;23.50;99.90;;;;;;5031178;28;20045;-44
2022/07/09 12:17:04;;;;;;;4.07;0.30;;;23.60;99.90;;;;;;5031185;28;20064;-44
2022/07/09 12:19:29;;;;;;;7.22;0.40;;;23.60;99.90;;;;;;5031636;28;20367;-44
2022/07/09 12:21:56;;;;;;;5.43;0.70;;;23.50;99.90;;;;;;5030022;28;20048;-42
2022/07/09 12:24:21;;;;;;;3.25;0.40;;;23.30;99.90;;;;;;5029715;28;20052;-44
2022/07/09 12:26:47;;;;;;;4.85;0.30;;;23.10;99.90;;;;;;5028848;28;20203;-42
2022/07/09 12:29:12;;;;;;;4.05;0.30;;;23.00;99.90;;;;;;5028994;28;20051;-43
2022/07/09 12:31:38;;;;;;;4.88;0.40;;;23.00;99.90;;;;;;5028797;28;20067;-42
2022/07/09 12:34:05;;;;;;;6.10;0.57;;;22.90;99.90;;;;;;5031347;28;20041;-42
2022/07/09 12:36:31;;;;;;;2.70;0.30;;;22.80;99.90;;;;;;5031100;28;20237;-42
2022/07/09 12:38:57;;;;;;;3.28;0.30;;;22.70;99.90;;;;;;5031373;28;20538;-42
2022/07/09 12:41:23;;;;;;;3.50;0.40;;;22.60;99.90;;;;;;5030995;28;20083;-43
2022/07/09 12:43:48;;;;;;;5.75;0.60;;;22.60;99.90;;;;;;5013380;28;20531;-43
2022/07/09 12:46:14;;;;;;;4.20;0.50;;;22.60;99.90;;;;;;5031261;28;20529;-43